createdAt,value
2023-01-27T00:00:39.316Z,2.30
2023-01-27T00:03:06.408Z,2.30
2023-01-27T00:05:33.102Z,2.30
2023-01-27T00:07:59.730Z,2.30
2023-01-27T00:10:27.231Z,2.30
2023-01-27T00:13:12.724Z,2.30
2023-01-27T00:15:40.260Z,2.30
2023-01-27T00:18:07.073Z,2.30
2023-01-27T00:20:52.363Z,2.30
2023-01-27T00:23:40.518Z,2.40
2023-01-27T00:26:14.310Z,2.40
2023-01-27T00:28:42.269Z,2.40
2023-01-27T00:31:29.724Z,2.40
2023-01-27T00:34:01.904Z,2.50
2023-01-27T00:36:29.638Z,2.40
2023-01-27T00:38:57.088Z,2.50
2023-01-27T00:41:23.790Z,2.50
2023-01-27T00:43:53.157Z,2.50
2023-01-27T00:46:22.403Z,2.50
2023-01-27T00:48:49.571Z,2.50
2023-01-27T00:51:17.439Z,2.50
2023-01-27T00:53:44.946Z,2.50
2023-01-27T00:56:12.014Z,2.50
2023-01-27T00:58:39.013Z,2.60
2023-01-27T01:01:10.221Z,2.60
2023-01-27T01:03:37.291Z,2.60
2023-01-27T01:06:13.051Z,2.60
2023-01-27T01:08:40.263Z,2.60
2023-01-27T01:11:09.101Z,2.60
2023-01-27T01:13:35.755Z,2.50
2023-01-27T01:16:13.949Z,2.50
2023-01-27T01:18:41.144Z,2.40
2023-01-27T01:21:07.962Z,2.30
2023-01-27T01:23:38.914Z,2.10
2023-01-27T01:26:05.684Z,2.10
2023-01-27T01:28:32.644Z,2.10
2023-01-27T01:31:25.700Z,2.10
2023-01-27T01:33:52.353Z,2.10
2023-01-27T01:36:20.743Z,2.00
2023-01-27T01:38:48.399Z,2.00
2023-01-27T01:41:18.238Z,2.10
2023-01-27T01:43:45.060Z,2.10
2023-01-27T01:46:12.687Z,2.20
2023-01-27T01:48:53.268Z,2.10
2023-01-27T01:51:30.537Z,2.00
2023-01-27T01:54:16.410Z,2.10
2023-01-27T01:56:55.647Z,2.10
2023-01-27T01:59:33.427Z,2.10
2023-01-27T02:02:04.874Z,2.10
2023-01-27T02:04:46.967Z,2.00
2023-01-27T02:07:21.645Z,2.00
2023-01-27T02:09:48.694Z,2.00
2023-01-27T02:12:15.357Z,1.90
2023-01-27T02:14:42.249Z,2.00
2023-01-27T02:17:11.318Z,2.00
2023-01-27T02:19:45.066Z,2.10
2023-01-27T02:22:18.979Z,2.20
2023-01-27T02:24:49.731Z,2.20
2023-01-27T02:27:16.479Z,2.30
2023-01-27T02:29:43.086Z,2.30
2023-01-27T02:32:25.693Z,2.30
2023-01-27T02:34:55.526Z,3.00
2023-01-27T02:37:24.040Z,2.40
2023-01-27T02:39:52.143Z,2.40
2023-01-27T02:42:19.736Z,2.40
2023-01-27T02:44:46.328Z,2.50
2023-01-27T02:47:12.996Z,2.50
2023-01-27T02:49:39.637Z,2.40
2023-01-27T02:52:06.302Z,2.40
2023-01-27T02:54:32.913Z,2.40
2023-01-27T02:56:59.548Z,2.50
2023-01-27T02:59:26.190Z,2.50
2023-01-27T03:01:52.877Z,2.50
2023-01-27T03:04:19.468Z,2.60
2023-01-27T03:06:46.100Z,2.60
2023-01-27T03:09:12.799Z,2.60
2023-01-27T03:11:58.101Z,2.70
2023-01-27T03:14:43.603Z,2.70
2023-01-27T03:17:29.049Z,2.70
2023-01-27T03:19:55.665Z,2.70
2023-01-27T03:22:22.393Z,2.70
2023-01-27T03:24:49.042Z,2.70
2023-01-27T03:27:15.680Z,2.70
2023-01-27T03:29:57.907Z,2.80
2023-01-27T03:32:29.538Z,2.80
2023-01-27T03:35:00.492Z,2.80
2023-01-27T03:37:47.019Z,2.80
2023-01-27T03:40:33.247Z,2.80
2023-01-27T03:43:18.717Z,2.80
2023-01-27T03:46:07.111Z,2.80
2023-01-27T03:48:34.907Z,2.80
2023-01-27T03:51:03.369Z,2.90
2023-01-27T03:53:30.238Z,2.90
2023-01-27T03:55:56.986Z,2.90
2023-01-27T03:58:23.606Z,2.90
2023-01-27T04:00:52.772Z,2.90
2023-01-27T04:03:38.896Z,2.90
2023-01-27T04:06:25.893Z,2.90
2023-01-27T04:08:52.814Z,2.90
2023-01-27T04:11:38.108Z,2.90
2023-01-27T04:14:06.008Z,2.90
2023-01-27T04:16:34.401Z,2.90
2023-01-27T04:19:01.056Z,2.90
2023-01-27T04:21:27.709Z,2.90
2023-01-27T04:23:54.625Z,2.90
2023-01-27T04:26:22.222Z,2.90
2023-01-27T04:28:49.562Z,2.90
2023-01-27T04:31:17.073Z,2.90
2023-01-27T04:33:45.094Z,3.00
2023-01-27T04:36:12.922Z,3.00
2023-01-27T04:38:39.594Z,3.00
2023-01-27T04:41:06.189Z,3.00
2023-01-27T04:43:32.801Z,3.00
2023-01-27T04:45:59.465Z,3.00
2023-01-27T04:48:26.090Z,3.00
2023-01-27T04:50:52.710Z,3.00
2023-01-27T04:53:19.357Z,3.00
2023-01-27T04:55:48.911Z,3.00
2023-01-27T04:58:17.693Z,3.10
2023-01-27T05:00:45.461Z,3.10
2023-01-27T05:03:12.239Z,3.10
2023-01-27T05:05:39.128Z,3.10
2023-01-27T05:08:06.930Z,3.10
2023-01-27T05:10:33.856Z,3.10
2023-01-27T05:13:01.874Z,3.10
2023-01-27T05:15:29.282Z,3.00
2023-01-27T05:17:56.191Z,3.00
2023-01-27T05:20:22.943Z,2.90
2023-01-27T05:22:51.327Z,2.90
2023-01-27T05:25:18.027Z,2.90
2023-01-27T05:27:44.962Z,2.80
2023-01-27T05:30:12.218Z,2.80
2023-01-27T05:32:38.828Z,2.80
2023-01-27T05:35:05.999Z,2.90
2023-01-27T05:37:32.726Z,2.90
2023-01-27T05:39:59.471Z,2.90
2023-01-27T05:42:26.148Z,2.90
2023-01-27T05:44:52.772Z,3.00
2023-01-27T05:47:19.387Z,3.00
2023-01-27T05:49:45.989Z,3.00
2023-01-27T05:52:12.596Z,3.00
2023-01-27T05:54:39.202Z,3.00
2023-01-27T05:57:05.827Z,3.00
2023-01-27T05:59:32.564Z,3.00
2023-01-27T06:01:59.296Z,3.00
2023-01-27T06:04:26.598Z,3.00
2023-01-27T06:06:53.217Z,3.00
2023-01-27T06:09:19.891Z,3.00
2023-01-27T06:11:47.325Z,3.00
2023-01-27T06:14:14.653Z,3.00
2023-01-27T06:16:41.410Z,3.00
2023-01-27T06:19:08.305Z,3.00
2023-01-27T06:21:34.954Z,3.00
2023-01-27T06:24:01.652Z,3.00
2023-01-27T06:26:28.336Z,3.00
2023-01-27T06:28:56.905Z,3.00
2023-01-27T06:31:23.781Z,3.10
2023-01-27T06:33:51.146Z,3.10
2023-01-27T06:36:19.764Z,3.10
2023-01-27T06:38:46.815Z,3.10
2023-01-27T06:41:13.611Z,3.10
2023-01-27T06:43:40.254Z,3.10
2023-01-27T06:46:07.123Z,3.10
2023-01-27T06:48:34.150Z,3.10
2023-01-27T06:51:00.791Z,3.10
2023-01-27T06:53:27.501Z,3.10
2023-01-27T06:55:59.429Z,3.10
2023-01-27T06:58:26.253Z,3.10
2023-01-27T07:00:52.889Z,3.10
2023-01-27T07:03:19.634Z,3.10
2023-01-27T07:05:46.264Z,3.20
2023-01-27T07:08:12.905Z,3.20
2023-01-27T07:10:39.553Z,3.20
2023-01-27T07:13:10.641Z,3.20
2023-01-27T07:15:37.741Z,3.20
2023-01-27T07:18:05.131Z,3.30
2023-01-27T07:20:32.599Z,3.30
2023-01-27T07:23:01.176Z,3.30
2023-01-27T07:25:29.019Z,3.30
2023-01-27T07:27:58.008Z,3.30
2023-01-27T07:30:25.265Z,3.30
2023-01-27T07:32:52.375Z,3.30
2023-01-27T07:35:19.073Z,3.30
2023-01-27T07:37:45.714Z,3.30
2023-01-27T07:40:16.142Z,3.30
2023-01-27T07:42:43.043Z,3.30
2023-01-27T07:45:10.002Z,3.40
2023-01-27T07:47:36.691Z,3.40
2023-01-27T07:50:03.571Z,3.40
2023-01-27T07:52:30.289Z,3.50
2023-01-27T07:54:56.961Z,3.50
2023-01-27T07:57:23.640Z,3.50
2023-01-27T07:59:55.211Z,3.60
2023-01-27T08:02:22.796Z,3.60
2023-01-27T08:04:53.767Z,3.60
2023-01-27T08:07:21.094Z,3.70
2023-01-27T08:09:47.772Z,3.70
2023-01-27T08:12:14.588Z,3.70
2023-01-27T08:14:41.275Z,3.70
2023-01-27T08:17:07.909Z,3.80
2023-01-27T08:19:34.540Z,3.80
2023-01-27T08:22:01.231Z,3.80
2023-01-27T08:24:27.955Z,3.90
2023-01-27T08:26:54.856Z,3.90
2023-01-27T08:29:21.500Z,3.90
2023-01-27T08:31:48.199Z,3.90
2023-01-27T08:34:15.073Z,4.00
2023-01-27T08:36:43.466Z,4.20
2023-01-27T08:39:11.094Z,4.00
2023-01-27T08:41:38.489Z,4.10
2023-01-27T08:44:05.653Z,4.10
2023-01-27T08:46:32.370Z,4.10
2023-01-27T08:48:58.972Z,4.00
2023-01-27T08:51:25.609Z,4.10
2023-01-27T08:53:52.209Z,4.10
2023-01-27T08:56:18.921Z,4.20
2023-01-27T08:58:48.314Z,4.20
2023-01-27T09:01:16.333Z,4.20
2023-01-27T09:03:43.006Z,4.20
2023-01-27T09:06:11.357Z,4.20
2023-01-27T09:08:39.271Z,4.10
2023-01-27T09:11:17.522Z,4.10
2023-01-27T09:13:44.263Z,4.10
2023-01-27T09:16:10.963Z,4.10
2023-01-27T09:18:37.836Z,4.10
2023-01-27T09:21:05.903Z,4.10
2023-01-27T09:23:34.049Z,4.10
2023-01-27T09:26:00.805Z,4.10
2023-01-27T09:28:27.622Z,4.20
2023-01-27T09:30:57.825Z,4.20
2023-01-27T09:33:25.931Z,4.10
2023-01-27T09:35:57.480Z,4.10
2023-01-27T09:38:27.041Z,4.10
2023-01-27T09:41:20.604Z,4.10
2023-01-27T09:43:58.774Z,4.10
2023-01-27T09:46:39.323Z,4.20
2023-01-27T09:49:28.367Z,4.30
2023-01-27T09:52:02.121Z,4.40
2023-01-27T09:54:48.305Z,4.50
2023-01-27T09:57:27.023Z,4.40
2023-01-27T10:00:44.538Z,4.40
2023-01-27T10:03:30.555Z,4.30
2023-01-27T10:06:21.744Z,4.30
2023-01-27T10:08:56.985Z,4.40
2023-01-27T10:11:49.248Z,4.50
2023-01-27T10:14:58.594Z,4.40
2023-01-27T10:17:28.031Z,4.40
2023-01-27T10:20:14.768Z,4.50
2023-01-27T10:23:06.391Z,4.60
2023-01-27T10:25:53.479Z,4.60
2023-01-27T10:28:27.636Z,4.50
2023-01-27T10:31:19.706Z,4.40
2023-01-27T10:34:01.709Z,4.40
2023-01-27T10:36:31.967Z,4.50
2023-01-27T10:39:07.610Z,4.50
2023-01-27T10:41:56.704Z,4.40
2023-01-27T10:44:26.133Z,4.30
2023-01-27T10:47:25.431Z,4.10
2023-01-27T10:49:57.305Z,4.10
2023-01-27T10:52:46.403Z,4.20
2023-01-27T10:55:29.637Z,4.20
2023-01-27T10:58:00.262Z,4.30
2023-01-27T11:01:19.305Z,4.40
2023-01-27T11:03:49.403Z,4.40
2023-01-27T11:06:25.169Z,4.40
2023-01-27T11:08:56.441Z,4.40
2023-01-27T11:11:43.603Z,4.60
2023-01-27T11:14:25.108Z,4.70
2023-01-27T11:16:56.745Z,4.70
2023-01-27T11:19:30.564Z,4.80
2023-01-27T11:22:07.881Z,4.90
2023-01-27T11:24:47.111Z,5.10
2023-01-27T11:27:45.145Z,5.20
2023-01-27T11:30:26.555Z,5.40
2023-01-27T11:33:09.501Z,5.50
2023-01-27T11:35:36.210Z,5.60
2023-01-27T11:38:15.088Z,5.60
2023-01-27T11:40:45.404Z,5.60
2023-01-27T11:45:46.831Z,5.70
2023-01-27T11:48:16.993Z,5.70
2023-01-27T11:50:44.977Z,5.80
2023-01-27T11:53:16.755Z,5.90
2023-01-27T11:55:48.803Z,6.00
2023-01-27T11:58:31.975Z,6.20
2023-01-27T12:01:15.854Z,6.30
2023-01-27T12:04:01.138Z,6.50
2023-01-27T12:06:40.572Z,6.50
2023-01-27T12:09:07.206Z,6.50
2023-01-27T12:11:33.898Z,6.20
2023-01-27T12:14:03.195Z,6.10
2023-01-27T12:16:50.277Z,6.10
2023-01-27T12:19:27.859Z,6.10
2023-01-27T12:22:00.303Z,6.10
2023-01-27T12:24:34.564Z,6.00
2023-01-27T12:27:02.826Z,5.70
2023-01-27T12:29:40.637Z,5.70
2023-01-27T12:32:17.745Z,5.70
2023-01-27T12:34:51.568Z,5.60
2023-01-27T12:37:27.357Z,5.60
2023-01-27T12:40:16.383Z,5.70
2023-01-27T12:42:48.103Z,5.80
2023-01-27T12:45:22.860Z,5.80
2023-01-27T12:48:01.880Z,5.80
2023-01-27T12:50:31.574Z,6.00
2023-01-27T12:53:13.350Z,6.00
2023-01-27T12:55:46.835Z,6.10
2023-01-27T12:58:31.386Z,6.10
2023-01-27T13:01:00.083Z,6.20
2023-01-27T13:03:27.433Z,6.20
2023-01-27T13:05:56.957Z,6.10
2023-01-27T13:08:26.157Z,6.10
2023-01-27T13:10:57.449Z,6.10
2023-01-27T13:13:26.902Z,6.10
2023-01-27T13:16:17.257Z,6.10
2023-01-27T13:19:01.516Z,6.10
2023-01-27T13:21:35.421Z,6.10
2023-01-27T13:24:06.319Z,6.10
2023-01-27T13:26:37.285Z,6.00
2023-01-27T13:29:17.980Z,6.00
2023-01-27T13:32:14.116Z,6.00
2023-01-27T13:35:14.586Z,6.00
2023-01-27T13:38:06.392Z,6.00
2023-01-27T13:40:45.764Z,6.00
2023-01-27T13:43:32.595Z,6.10
2023-01-27T13:46:24.395Z,6.20
2023-01-27T13:48:55.114Z,6.30
2023-01-27T13:51:24.617Z,6.30
2023-01-27T13:54:06.742Z,6.30
2023-01-27T13:57:04.446Z,6.10
2023-01-27T13:59:52.278Z,6.10
2023-01-27T14:02:28.308Z,6.10
2023-01-27T14:05:18.466Z,6.10
2023-01-27T14:07:54.836Z,6.00
2023-01-27T14:10:35.642Z,6.10
2023-01-27T14:13:35.519Z,6.20
2023-01-27T14:16:13.026Z,6.10
2023-01-27T14:18:57.188Z,6.00
2023-01-27T14:21:55.596Z,6.00
2023-01-27T14:24:34.375Z,6.10
2023-01-27T14:27:05.367Z,6.10
2023-01-27T14:29:54.709Z,6.10
2023-01-27T14:32:39.145Z,6.10
2023-01-27T14:35:26.829Z,6.10
2023-01-27T14:38:10.591Z,6.00
2023-01-27T14:41:01.781Z,6.10
2023-01-27T14:43:43.140Z,6.00
2023-01-27T14:46:28.444Z,6.10
2023-01-27T14:49:36.297Z,6.10
2023-01-27T14:52:11.703Z,6.10
2023-01-27T14:55:10.875Z,6.10
2023-01-27T14:58:08.962Z,6.10
2023-01-27T15:00:55.848Z,6.10
2023-01-27T15:03:41.102Z,6.10
2023-01-27T15:06:33.982Z,6.00
2023-01-27T15:09:00.595Z,6.10
2023-01-27T15:11:43.718Z,6.00
2023-01-27T15:14:43.434Z,6.00
2023-01-27T15:17:18.985Z,6.00
2023-01-27T15:19:58.206Z,6.00
2023-01-27T15:22:31.311Z,6.10
2023-01-27T15:25:19.693Z,6.10
2023-01-27T15:27:48.427Z,6.10
2023-01-27T15:30:21.708Z,6.00
2023-01-27T15:32:48.351Z,6.00
2023-01-27T15:35:36.686Z,6.00
2023-01-27T15:38:08.120Z,6.10
2023-01-27T15:40:59.057Z,6.10
2023-01-27T15:43:29.696Z,6.10
2023-01-27T15:45:58.149Z,6.10
2023-01-27T15:48:32.640Z,6.10
2023-01-27T15:51:07.098Z,6.00
2023-01-27T15:53:39.098Z,5.90
2023-01-27T15:56:06.450Z,6.00
2023-01-27T15:58:39.621Z,5.90
2023-01-27T16:01:22.642Z,5.90
2023-01-27T16:03:50.604Z,5.90
2023-01-27T16:06:23.680Z,5.80
2023-01-27T16:09:03.810Z,5.70
2023-01-27T16:11:39.408Z,5.70
2023-01-27T16:14:12.211Z,5.70
2023-01-27T16:16:40.505Z,5.60
2023-01-27T16:19:11.093Z,5.60
2023-01-27T16:21:53.447Z,5.60
2023-01-27T16:24:25.390Z,5.50
2023-01-27T16:26:59.641Z,5.50
2023-01-27T16:29:38.500Z,5.50
2023-01-27T16:32:16.956Z,5.50
2023-01-27T16:34:53.212Z,5.50
2023-01-27T16:37:27.295Z,5.60
2023-01-27T16:39:59.310Z,5.60
2023-01-27T16:42:44.464Z,5.60
2023-01-27T16:45:30.004Z,5.60
2023-01-27T16:48:12.768Z,5.60
2023-01-27T16:50:41.865Z,5.70
2023-01-27T16:53:28.833Z,5.70
2023-01-27T16:56:04.941Z,5.70
2023-01-27T16:58:45.602Z,5.70
2023-01-27T17:01:45.566Z,5.70
2023-01-27T17:04:24.948Z,5.70
2023-01-27T17:06:56.002Z,5.70
2023-01-27T17:09:28.240Z,5.70
2023-01-27T17:11:55.609Z,5.60
2023-01-27T17:14:38.206Z,5.70
2023-01-27T17:17:14.963Z,5.70
2023-01-27T17:19:47.312Z,5.60
2023-01-27T17:22:24.286Z,5.70
2023-01-27T17:24:54.018Z,5.70
2023-01-27T17:27:27.826Z,5.70
2023-01-27T17:30:01.565Z,5.70
2023-01-27T17:32:34.073Z,5.60
2023-01-27T17:35:08.509Z,5.60
2023-01-27T17:37:43.149Z,5.60
2023-01-27T17:40:21.574Z,5.60
2023-01-27T17:42:49.250Z,5.70
2023-01-27T17:45:31.976Z,5.70
2023-01-27T17:47:59.694Z,5.60
2023-01-27T17:50:34.260Z,5.60
2023-01-27T17:53:01.086Z,5.60
2023-01-27T17:55:30.944Z,5.60
2023-01-27T17:58:04.519Z,5.60
2023-01-27T18:00:35.410Z,5.60
2023-01-27T18:03:24.796Z,5.60
2023-01-27T18:05:54.463Z,5.60
2023-01-27T18:08:23.501Z,5.60
2023-01-27T18:10:50.974Z,5.50
2023-01-27T18:13:20.370Z,5.50
2023-01-27T18:16:14.096Z,5.60
2023-01-27T18:18:40.767Z,5.50
2023-01-27T18:21:10.223Z,5.50
2023-01-27T18:23:46.450Z,5.50
2023-01-27T18:26:21.729Z,5.50
2023-01-27T18:28:57.833Z,5.50
2023-01-27T18:31:34.303Z,5.50
2023-01-27T18:34:04.129Z,5.50
2023-01-27T18:36:36.455Z,5.50
2023-01-27T18:39:43.360Z,5.50
2023-01-27T18:42:15.232Z,5.50
2023-01-27T18:44:42.212Z,5.50
2023-01-27T18:47:17.864Z,5.50
2023-01-27T18:49:58.999Z,5.50
2023-01-27T18:52:26.220Z,5.40
2023-01-27T18:55:01.830Z,5.40
2023-01-27T18:57:28.700Z,5.40
2023-01-27T18:59:55.294Z,5.30
2023-01-27T19:02:22.254Z,5.30
2023-01-27T19:04:49.000Z,5.30
2023-01-27T19:07:17.923Z,5.30
2023-01-27T19:09:45.936Z,5.30
2023-01-27T19:12:12.876Z,5.40
2023-01-27T19:14:41.728Z,5.20
2023-01-27T19:17:17.282Z,5.20
2023-01-27T19:19:44.075Z,5.30
2023-01-27T19:22:16.108Z,5.20
2023-01-27T19:24:45.441Z,5.20
2023-01-27T19:27:14.017Z,5.20
2023-01-27T19:29:41.112Z,5.20
2023-01-27T19:32:11.708Z,5.20
2023-01-27T19:34:38.376Z,5.30
2023-01-27T19:37:05.406Z,5.30
2023-01-27T19:39:32.006Z,5.20
2023-01-27T19:41:58.644Z,5.20
2023-01-27T19:44:25.393Z,5.20
2023-01-27T19:46:52.036Z,5.20
2023-01-27T19:49:19.647Z,5.20
2023-01-27T19:51:46.305Z,5.10
2023-01-27T19:54:12.969Z,5.20
2023-01-27T19:56:39.603Z,5.10
2023-01-27T19:59:06.389Z,5.10
2023-01-27T20:01:33.064Z,5.00
2023-01-27T20:03:59.804Z,5.00
2023-01-27T20:06:28.728Z,5.10
2023-01-27T20:08:59.405Z,5.00
2023-01-27T20:11:36.220Z,5.00
2023-01-27T20:14:13.593Z,5.10
2023-01-27T20:16:40.825Z,5.10
2023-01-27T20:19:07.721Z,5.00
2023-01-27T20:21:34.509Z,5.00
2023-01-27T20:24:02.022Z,5.00
2023-01-27T20:26:31.114Z,5.00
2023-01-27T20:28:58.141Z,5.00
2023-01-27T20:31:24.957Z,5.00
2023-01-27T20:33:52.025Z,5.00
2023-01-27T20:36:21.397Z,5.00
2023-01-27T20:38:48.544Z,5.00
2023-01-27T20:41:20.439Z,5.00
2023-01-27T20:43:47.108Z,5.00
2023-01-27T20:46:16.593Z,4.30
2023-01-27T20:48:44.063Z,5.00
2023-01-27T20:51:13.293Z,5.00
2023-01-27T20:53:47.681Z,4.90
2023-01-27T20:56:17.142Z,4.90
2023-01-27T20:58:44.590Z,4.90
2023-01-27T21:01:20.057Z,4.90
2023-01-27T21:03:47.249Z,4.90
2023-01-27T21:06:15.741Z,4.80
2023-01-27T21:08:47.507Z,4.90
2023-01-27T21:11:15.958Z,4.90
2023-01-27T21:13:42.744Z,4.80
2023-01-27T21:16:10.300Z,4.70
2023-01-27T21:18:37.337Z,4.80
2023-01-27T21:21:04.536Z,4.80
2023-01-27T21:23:33.267Z,4.80
2023-01-27T21:26:11.561Z,4.80
2023-01-27T21:28:38.195Z,4.80
2023-01-27T21:31:16.182Z,4.80
2023-01-27T21:33:45.650Z,4.80
2023-01-27T21:36:12.390Z,4.80
2023-01-27T21:38:39.638Z,4.90
2023-01-27T21:41:35.872Z,4.90
2023-01-27T21:44:21.332Z,4.80
2023-01-27T21:46:48.057Z,4.80
2023-01-27T21:49:15.271Z,4.90
2023-01-27T21:51:42.846Z,4.90
2023-01-27T21:54:09.900Z,4.90
2023-01-27T21:56:36.520Z,4.90
2023-01-27T21:59:03.229Z,4.90
2023-01-27T22:01:31.660Z,4.90
2023-01-27T22:03:58.538Z,4.90
2023-01-27T22:06:26.014Z,4.90
2023-01-27T22:08:52.738Z,4.90
2023-01-27T22:11:19.465Z,4.90
2023-01-27T22:13:46.219Z,4.90
2023-01-27T22:16:15.064Z,4.90
2023-01-27T22:18:42.526Z,4.90
2023-01-27T22:21:09.512Z,4.80
2023-01-27T22:23:36.137Z,4.80
2023-01-27T22:26:05.691Z,4.90
2023-01-27T22:28:32.414Z,4.90
2023-01-27T22:31:02.544Z,4.80
2023-01-27T22:33:29.318Z,4.80
2023-01-27T22:36:01.303Z,4.80
2023-01-27T22:38:28.201Z,4.80
2023-01-27T22:41:00.929Z,4.80
2023-01-27T22:43:27.589Z,4.80
2023-01-27T22:45:54.305Z,4.80
2023-01-27T22:48:21.031Z,4.80
2023-01-27T22:50:47.673Z,4.80
2023-01-27T22:53:14.302Z,4.70
2023-01-27T22:55:40.965Z,4.70
2023-01-27T22:58:08.556Z,4.70
2023-01-27T23:00:35.641Z,4.70
2023-01-27T23:03:02.368Z,4.70
2023-01-27T23:05:29.080Z,4.60
2023-01-27T23:07:55.771Z,4.80
2023-01-27T23:10:23.637Z,4.70
2023-01-27T23:12:50.283Z,4.70
2023-01-27T23:15:17.407Z,4.70
2023-01-27T23:17:44.217Z,4.70
2023-01-27T23:20:11.529Z,4.70
2023-01-27T23:22:38.188Z,4.70
2023-01-27T23:25:05.521Z,4.80
2023-01-27T23:27:32.612Z,4.80
2023-01-27T23:29:59.236Z,4.80
2023-01-27T23:32:25.862Z,4.70
2023-01-27T23:34:52.489Z,4.70
2023-01-27T23:37:19.138Z,4.70
2023-01-27T23:39:48.659Z,4.60
2023-01-27T23:42:16.821Z,4.60
2023-01-27T23:44:43.690Z,4.60
2023-01-27T23:47:11.434Z,4.50
2023-01-27T23:49:38.081Z,4.50
2023-01-27T23:52:04.999Z,4.50
2023-01-27T23:54:32.762Z,4.50
2023-01-27T23:56:59.907Z,4.50
2023-01-27T23:59:26.520Z,4.50
